Hlavní strana
METAR-TAF:

METAR-TAF

Letiště :

Nebraska City Municipal Airport

Nebraska City, Nebraska, Spojené státy americké

zeměpisná šířka: 40-36N, zeměpisná délka: 095-51W, výška: 354 m

Aktuální stav počasí

Zpráva byla vytvořena před 21 minutami, v 10:15 UTC
Severoseverozápadní vítr 13 kt s nárazy do 18 kt
Teplota -1°C
Vlhkost vzduchu 100%
Tlak 1015 hPa
Viditelnost: 2.4 km
Zataženo ve výšce 300 ft
kouřmo

METAR: KAFK 241015Z AUTO 34013G18KT 1 1/2SM BR OVC003 M01/M01 A2997 RMK AO2 T10061006

Čas: 04:36 (10:36 UTC)


TAF: chybějící

Stav a předpovědi počasí z více než 4 000 letišť (zprávy METAR a TAF).

Červené a žluté tečky na mapě představují dostupné meteorologické stanice.

Když kurzor umístíte na tečku, zobrazí se název stanice.

Pak kliknutím zobrazíte stav a předpověď počasí.

Chcete-li změnit mapu, kliknutím na zelené tlačítko se znaménkem +mapu přiblížíte, kliknutím na zelené tlačítko se znaménkem – mapu oddálíte a kliknutím na zelené šipky přejdete na sousední mapy.


METAR-TAF: